Time;durP1;ratioP1;P1;durP2;ratioP2;P2;SDS_P1;SDS_P2;PMS_P1;PMS_P2;Temp;Humidity;BMP_temperature;BMP_pressure;BME280_temperature;BME280_humidity;BME280_pressure;Samples;Min_cycle;Max_cycle;Signal;HPM_P1;HPM_P2
2024/03/16 00:01:40;;;;;;;2.90;1.00;;;;;;;;;;5069544;28;20040;-59
2024/03/16 00:04:05;;;;;;;3.38;1.20;;;;;;;;;;5069896;28;20086;-58
2024/03/16 00:06:30;;;;;;;5.57;1.38;;;;;;;;;;5069383;28;20119;-60
2024/03/16 00:08:56;;;;;;;4.43;1.33;;;;;;;;;;5070470;28;20060;-59
2024/03/16 00:11:22;;;;;;;5.07;1.33;;;;;;;;;;5069390;28;20504;-59
2024/03/16 00:13:47;;;;;;;3.05;1.15;;;;;;;;;;5069937;28;20036;-59
2024/03/16 00:16:13;;;;;;;4.57;1.15;;;;;;;;;;5069754;28;20044;-54
2024/03/16 00:18:38;;;;;;;4.10;1.25;;;;;;;;;;5070214;28;20052;-51
2024/03/16 00:21:04;;;;;;;2.70;1.20;;;;;;;;;;5068691;28;20060;-55
2024/03/16 00:23:29;;;;;;;1.85;0.98;;;;;;;;;;5069922;28;20039;-51
2024/03/16 00:25:55;;;;;;;5.15;1.00;;;;;;;;;;5069340;28;20037;-55
2024/03/16 00:28:21;;;;;;;2.95;1.15;;;;;;;;;;5069454;28;20024;-55
2024/03/16 00:30:46;;;;;;;3.67;1.20;;;;;;;;;;5069620;28;20028;-53
2024/03/16 00:33:12;;;;;;;3.05;1.10;;;;;;;;;;5069544;28;20554;-54
2024/03/16 00:35:38;;;;;;;2.88;1.13;;;;;;;;;;5069176;28;20060;-55
2024/03/16 00:38:03;;;;;;;2.83;1.10;;;;;;;;;;5069334;28;20472;-56
2024/03/16 00:40:29;;;;;;;2.83;1.00;;;;;;;;;;5069523;28;20051;-54
2024/03/16 00:42:54;;;;;;;2.20;1.10;;;;;;;;;;5068635;28;20074;-52
2024/03/16 00:45:19;;;;;;;3.40;1.30;;;;;;;;;;5068726;28;20033;-56
2024/03/16 00:47:45;;;;;;;2.22;1.20;;;;;;;;;;5069442;28;20077;-56
2024/03/16 00:50:10;;;;;;;2.15;0.80;;;;;;;;;;5069126;28;20028;-56
2024/03/16 00:52:36;;;;;;;1.92;0.90;;;;;;;;;;5068582;28;20552;-53
2024/03/16 00:55:03;;;;;;;3.35;1.05;;;;;;;;;;5069179;28;20139;-52
2024/03/16 00:57:28;;;;;;;1.85;1.00;;;;;;;;;;5069337;28;20039;-54
2024/03/16 00:59:54;;;;;;;2.05;0.93;;;;;;;;;;5069398;28;20024;-53
2024/03/16 01:02:20;;;;;;;2.83;0.90;;;;;;;;;;5068668;28;20036;-53
2024/03/16 01:04:45;;;;;;;2.22;1.00;;;;;;;;;;5069041;28;20040;-55
2024/03/16 01:07:11;;;;;;;2.40;0.85;;;;;;;;;;5068756;28;20032;-54
2024/03/16 01:09:36;;;;;;;2.22;0.93;;;;;;;;;;5069042;28;20044;-54
2024/03/16 01:12:02;;;;;;;2.45;1.08;;;;;;;;;;5069307;28;20115;-51
2024/03/16 01:14:28;;;;;;;2.20;0.90;;;;;;;;;;5068462;28;20032;-55
2024/03/16 01:16:53;;;;;;;5.80;1.00;;;;;;;;;;5068791;28;20040;-50
2024/03/16 01:19:18;;;;;;;2.20;1.10;;;;;;;;;;5068722;28;20321;-54
2024/03/16 01:21:44;;;;;;;1.55;0.90;;;;;;;;;;5069303;28;20040;-55
2024/03/16 01:24:09;;;;;;;3.38;1.10;;;;;;;;;;5068428;28;20059;-54
2024/03/16 01:26:35;;;;;;;2.13;1.08;;;;;;;;;;5068870;28;20097;-54
2024/03/16 01:29:01;;;;;;;2.50;0.95;;;;;;;;;;5068327;28;20496;-53
2024/03/16 01:31:28;;;;;;;2.13;0.70;;;;;;;;;;5068397;28;20512;-54
2024/03/16 01:33:53;;;;;;;1.45;0.77;;;;;;;;;;5068473;28;20119;-54
2024/03/16 01:36:19;;;;;;;4.22;1.38;;;;;;;;;;5068786;28;20108;-55
2024/03/16 01:38:45;;;;;;;1.67;0.75;;;;;;;;;;5069032;28;20483;-51
2024/03/16 01:41:11;;;;;;;3.08;0.95;;;;;;;;;;5068512;28;20449;-53
2024/03/16 01:43:36;;;;;;;1.40;0.70;;;;;;;;;;5068630;28;20046;-53
2024/03/16 01:46:01;;;;;;;2.80;0.93;;;;;;;;;;5068550;28;20111;-54
2024/03/16 01:48:27;;;;;;;2.30;0.77;;;;;;;;;;5068796;28;20033;-54
2024/03/16 01:50:54;;;;;;;1.63;0.65;;;;;;;;;;5068949;28;20040;-54
2024/03/16 01:53:19;;;;;;;1.35;0.70;;;;;;;;;;5066947;28;20064;-53
2024/03/16 01:55:45;;;;;;;2.15;0.80;;;;;;;;;;5050148;28;20603;-54
2024/03/16 01:58:10;;;;;;;1.52;0.73;;;;;;;;;;5072081;28;20412;-55
2024/03/16 02:00:36;;;;;;;1.65;0.75;;;;;;;;;;5072481;28;20054;-52
2024/03/16 02:03:02;;;;;;;1.67;0.85;;;;;;;;;;5072023;28;20101;-51
2024/03/16 02:05:27;;;;;;;1.70;0.70;;;;;;;;;;5072021;28;20032;-55
2024/03/16 02:07:53;;;;;;;1.80;0.65;;;;;;;;;;5072257;28;20041;-54
2024/03/16 02:10:19;;;;;;;1.30;0.80;;;;;;;;;;5072135;28;20029;-54
2024/03/16 02:12:45;;;;;;;3.13;0.88;;;;;;;;;;5072534;28;20471;-52
2024/03/16 02:15:11;;;;;;;1.63;0.70;;;;;;;;;;5070785;28;20128;-54
2024/03/16 02:17:37;;;;;;;1.80;0.80;;;;;;;;;;5071949;28;20091;-60
2024/03/16 02:20:04;;;;;;;1.58;0.70;;;;;;;;;;5070942;28;20063;-59
2024/03/16 02:22:30;;;;;;;1.98;0.80;;;;;;;;;;5071764;28;20476;-60
2024/03/16 02:24:56;;;;;;;1.45;0.73;;;;;;;;;;5071653;28;20031;-60
2024/03/16 02:27:22;;;;;;;2.35;0.80;;;;;;;;;;5070632;28;20029;-60
2024/03/16 02:29:47;;;;;;;1.52;0.68;;;;;;;;;;5072311;28;20055;-59
2024/03/16 02:32:14;;;;;;;1.38;0.70;;;;;;;;;;5071727;28;20033;-60
2024/03/16 02:34:39;;;;;;;1.45;0.60;;;;;;;;;;5071052;28;20024;-60
2024/03/16 02:37:06;;;;;;;2.20;0.93;;;;;;;;;;5071626;28;20530;-54
2024/03/16 02:39:32;;;;;;;1.25;0.60;;;;;;;;;;5069985;28;20037;-53
2024/03/16 02:41:58;;;;;;;1.63;0.77;;;;;;;;;;5071154;28;20032;-53
2024/03/16 02:44:25;;;;;;;1.55;0.68;;;;;;;;;;5072052;28;20119;-55
2024/03/16 02:46:50;;;;;;;1.20;0.57;;;;;;;;;;5070739;28;20043;-53
2024/03/16 02:49:15;;;;;;;1.02;0.60;;;;;;;;;;5069580;28;20032;-54
2024/03/16 02:51:41;;;;;;;1.15;0.50;;;;;;;;;;5071422;28;20036;-51
2024/03/16 02:54:08;;;;;;;1.48;0.70;;;;;;;;;;5071598;28;20055;-55
2024/03/16 02:56:34;;;;;;;1.15;0.60;;;;;;;;;;5070995;28;20085;-52
2024/03/16 02:58:59;;;;;;;1.58;0.70;;;;;;;;;;5071854;28;20036;-55
2024/03/16 03:01:25;;;;;;;1.08;0.60;;;;;;;;;;5070602;28;20093;-54
2024/03/16 03:03:50;;;;;;;2.10;1.02;;;;;;;;;;5071325;28;20043;-55
2024/03/16 03:06:16;;;;;;;1.75;0.80;;;;;;;;;;5069657;28;20041;-54
2024/03/16 03:08:43;;;;;;;1.73;0.75;;;;;;;;;;5070747;28;20376;-52
2024/03/16 03:11:09;;;;;;;1.45;0.70;;;;;;;;;;5071241;28;20479;-54
2024/03/16 03:13:34;;;;;;;1.88;0.75;;;;;;;;;;5070878;28;20068;-50
2024/03/16 03:16:00;;;;;;;1.25;0.70;;;;;;;;;;5071049;28;20028;-53
2024/03/16 03:18:25;;;;;;;1.60;0.70;;;;;;;;;;5070665;28;20066;-54
2024/03/16 03:20:54;;;;;;;1.55;0.75;;;;;;;;;;5070541;28;20499;-55
2024/03/16 03:23:19;;;;;;;1.45;0.50;;;;;;;;;;5071147;28;20094;-53
2024/03/16 03:25:47;;;;;;;1.98;0.70;;;;;;;;;;5071248;28;20530;-55
2024/03/16 03:28:12;;;;;;;1.38;0.75;;;;;;;;;;5070447;28;20066;-54
2024/03/16 03:30:38;;;;;;;1.10;0.60;;;;;;;;;;5070902;28;20468;-54
2024/03/16 03:33:03;;;;;;;1.27;0.65;;;;;;;;;;5070454;28;20052;-53
2024/03/16 03:35:28;;;;;;;0.82;0.50;;;;;;;;;;5070468;28;20169;-55
2024/03/16 03:37:54;;;;;;;2.80;0.77;;;;;;;;;;5070010;28;20028;-55
2024/03/16 03:40:19;;;;;;;1.45;0.68;;;;;;;;;;5070859;28;20036;-52
2024/03/16 03:42:47;;;;;;;1.67;0.60;;;;;;;;;;5070678;28;20049;-51
2024/03/16 03:45:37;;;;;;;1.08;0.50;;;;;;;;;;5070235;28;20025;-55
2024/03/16 03:48:14;;;;;;;0.60;0.47;;;;;;;;;;5069995;28;20028;-49
2024/03/16 03:50:43;;;;;;;2.65;0.90;;;;;;;;;;5070212;28;20044;-53
2024/03/16 03:53:08;;;;;;;2.33;0.70;;;;;;;;;;5069770;28;20043;-55
2024/03/16 03:55:34;;;;;;;0.85;0.60;;;;;;;;;;5070404;28;20139;-54
2024/03/16 03:58:01;;;;;;;1.20;0.70;;;;;;;;;;5070072;28;20095;-54
2024/03/16 04:00:27;;;;;;;1.33;0.47;;;;;;;;;;5069953;28;20039;-54
2024/03/16 04:02:53;;;;;;;1.70;0.63;;;;;;;;;;5070040;28;20037;-54
2024/03/16 04:05:18;;;;;;;1.02;0.68;;;;;;;;;;5069885;28;20030;-51
2024/03/16 04:07:43;;;;;;;1.17;0.57;;;;;;;;;;5068816;28;20040;-53
2024/03/16 04:10:09;;;;;;;0.88;0.60;;;;;;;;;;5062686;28;20064;-59
2024/03/16 04:12:34;;;;;;;0.70;0.50;;;;;;;;;;5069028;28;20072;-58
2024/03/16 04:15:00;;;;;;;1.17;0.55;;;;;;;;;;5069594;28;20518;-59
2024/03/16 04:17:25;;;;;;;1.80;0.70;;;;;;;;;;5069086;28;20039;-60
2024/03/16 04:19:51;;;;;;;1.92;0.68;;;;;;;;;;5067759;28;20083;-59
2024/03/16 04:22:17;;;;;;;1.38;0.70;;;;;;;;;;5068981;28;20128;-58
2024/03/16 04:24:42;;;;;;;0.88;0.60;;;;;;;;;;5069674;28;20048;-58
2024/03/16 04:27:07;;;;;;;1.23;0.68;;;;;;;;;;5069724;28;20033;-53
2024/03/16 04:29:33;;;;;;;1.00;0.50;;;;;;;;;;5069488;28;20036;-53
2024/03/16 04:31:59;;;;;;;2.13;0.60;;;;;;;;;;5069421;28;20044;-54
2024/03/16 04:34:25;;;;;;;1.58;0.57;;;;;;;;;;5069285;28;20650;-53
2024/03/16 04:36:51;;;;;;;1.20;0.60;;;;;;;;;;5059331;28;20561;-53
2024/03/16 04:39:17;;;;;;;0.90;0.52;;;;;;;;;;5068976;28;20052;-54
2024/03/16 04:41:42;;;;;;;1.00;0.60;;;;;;;;;;5069163;28;20025;-49
2024/03/16 04:44:08;;;;;;;1.60;0.68;;;;;;;;;;5069772;28;20626;-52
2024/03/16 04:46:33;;;;;;;1.13;0.60;;;;;;;;;;5069024;28;20041;-54
2024/03/16 04:48:59;;;;;;;1.17;0.50;;;;;;;;;;5069261;28;20032;-61
2024/03/16 04:51:25;;;;;;;0.70;0.50;;;;;;;;;;5069116;28;20036;-59
2024/03/16 04:53:51;;;;;;;0.90;0.70;;;;;;;;;;5069430;28;20094;-60
2024/03/16 04:56:16;;;;;;;1.65;0.60;;;;;;;;;;5069131;28;20075;-59
2024/03/16 04:58:41;;;;;;;1.45;0.60;;;;;;;;;;5068597;28;20157;-59
2024/03/16 05:01:09;;;;;;;0.82;0.50;;;;;;;;;;5068640;28;20670;-53
2024/03/16 05:03:34;;;;;;;1.08;0.47;;;;;;;;;;5069048;28;20028;-54
2024/03/16 05:06:00;;;;;;;0.68;0.50;;;;;;;;;;5068525;28;20111;-55
2024/03/16 05:08:25;;;;;;;2.63;0.65;;;;;;;;;;5069278;28;20049;-56
2024/03/16 05:10:51;;;;;;;1.48;0.50;;;;;;;;;;5067971;28;20044;-60
2024/03/16 05:13:17;;;;;;;1.00;0.60;;;;;;;;;;5069286;28;20090;-58
2024/03/16 05:15:42;;;;;;;1.55;0.68;;;;;;;;;;5069204;28;20392;-59
2024/03/16 05:18:07;;;;;;;1.35;0.70;;;;;;;;;;5068919;28;20107;-61
2024/03/16 05:20:33;;;;;;;0.95;0.50;;;;;;;;;;5068508;28;20049;-60
2024/03/16 05:23:00;;;;;;;1.65;0.50;;;;;;;;;;5068862;28;20039;-51
2024/03/16 05:25:26;;;;;;;0.75;0.50;;;;;;;;;;5068795;28;20078;-54
2024/03/16 05:27:51;;;;;;;0.90;0.60;;;;;;;;;;5069165;28;20036;-53
2024/03/16 05:30:16;;;;;;;2.85;0.57;;;;;;;;;;5069339;28;20115;-54
2024/03/16 05:32:42;;;;;;;0.75;0.50;;;;;;;;;;5071023;28;20081;-55
2024/03/16 05:35:08;;;;;;;1.58;0.60;;;;;;;;;;5072653;28;20068;-56
2024/03/16 05:37:34;;;;;;;0.93;0.47;;;;;;;;;;5072991;28;20032;-55
2024/03/16 05:40:00;;;;;;;1.35;0.60;;;;;;;;;;5072770;28;20040;-55
2024/03/16 05:42:25;;;;;;;0.47;0.40;;;;;;;;;;5072109;28;20043;-54
2024/03/16 05:44:51;;;;;;;0.55;0.45;;;;;;;;;;5073216;28;20419;-56
2024/03/16 05:47:21;;;;;;;0.77;0.47;;;;;;;;;;5072847;28;20081;-55
2024/03/16 05:49:46;;;;;;;0.80;0.50;;;;;;;;;;5072275;28;20024;-52
2024/03/16 05:52:12;;;;;;;1.45;0.63;;;;;;;;;;5072327;28;20046;-55
2024/03/16 05:54:37;;;;;;;1.02;0.60;;;;;;;;;;5072118;28;20036;-53
2024/03/16 05:57:03;;;;;;;0.55;0.47;;;;;;;;;;5072787;28;20029;-53
2024/03/16 05:59:29;;;;;;;0.82;0.45;;;;;;;;;;5072500;28;20058;-55
2024/03/16 06:01:55;;;;;;;2.17;0.43;;;;;;;;;;5071987;28;20037;-53
2024/03/16 06:04:20;;;;;;;0.55;0.47;;;;;;;;;;5072315;28;20108;-55
2024/03/16 06:06:46;;;;;;;1.55;0.70;;;;;;;;;;5071446;28;20041;-54
2024/03/16 06:09:12;;;;;;;0.82;0.52;;;;;;;;;;5072335;28;20039;-52
2024/03/16 06:11:37;;;;;;;0.63;0.43;;;;;;;;;;5072427;28;20041;-54
2024/03/16 06:14:04;;;;;;;0.80;0.50;;;;;;;;;;5071819;28;20545;-54
2024/03/16 06:16:30;;;;;;;0.95;0.50;;;;;;;;;;5072152;28;20090;-54
2024/03/16 06:18:55;;;;;;;0.88;0.50;;;;;;;;;;5072351;28;20044;-51
2024/03/16 06:21:21;;;;;;;0.80;0.50;;;;;;;;;;5071666;28;20036;-53
2024/03/16 06:23:48;;;;;;;0.60;0.50;;;;;;;;;;5071961;28;20037;-51
2024/03/16 06:26:17;;;;;;;0.77;0.50;;;;;;;;;;5071685;28;20468;-53
2024/03/16 06:28:46;;;;;;;0.93;0.40;;;;;;;;;;5071605;28;20115;-54
2024/03/16 06:31:12;;;;;;;0.68;0.47;;;;;;;;;;5072385;28;20055;-54
2024/03/16 06:33:45;;;;;;;0.88;0.52;;;;;;;;;;5071288;28;20071;-50
2024/03/16 06:36:11;;;;;;;0.93;0.50;;;;;;;;;;5071522;28;20075;-53
2024/03/16 06:38:37;;;;;;;1.58;0.57;;;;;;;;;;5072107;28;20032;-54
2024/03/16 06:41:02;;;;;;;1.15;0.60;;;;;;;;;;5071692;28;20453;-53
2024/03/16 06:43:28;;;;;;;1.17;0.68;;;;;;;;;;5070086;28;20124;-57
2024/03/16 06:45:53;;;;;;;0.95;0.50;;;;;;;;;;5071781;28;20067;-49
2024/03/16 06:48:18;;;;;;;1.40;0.60;;;;;;;;;;5071497;28;20425;-52
2024/03/16 06:50:46;;;;;;;0.82;0.50;;;;;;;;;;5071686;28;20129;-55
2024/03/16 06:53:11;;;;;;;0.68;0.50;;;;;;;;;;5071452;28;20357;-53
2024/03/16 06:55:37;;;;;;;0.55;0.45;;;;;;;;;;5070725;28;20029;-51
2024/03/16 06:58:04;;;;;;;1.20;0.55;;;;;;;;;;5071735;28;20044;-53
2024/03/16 07:00:30;;;;;;;1.45;0.60;;;;;;;;;;5071251;28;20408;-53
2024/03/16 07:02:55;;;;;;;0.95;0.60;;;;;;;;;;5071292;28;20033;-57
2024/03/16 07:05:21;;;;;;;1.13;0.50;;;;;;;;;;5070904;28;20052;-60
2024/03/16 07:07:46;;;;;;;1.40;0.60;;;;;;;;;;5070789;28;20047;-60
2024/03/16 07:10:11;;;;;;;1.00;0.50;;;;;;;;;;5070955;28;20033;-60
2024/03/16 07:12:37;;;;;;;1.25;0.57;;;;;;;;;;5070059;28;20598;-60
2024/03/16 07:15:03;;;;;;;1.35;0.40;;;;;;;;;;5070202;28;20395;-60
2024/03/16 07:17:31;;;;;;;1.27;0.60;;;;;;;;;;5070957;28;20060;-54
2024/03/16 07:19:56;;;;;;;0.95;0.52;;;;;;;;;;5070756;28;20456;-55
2024/03/16 07:22:22;;;;;;;1.90;0.70;;;;;;;;;;5071110;28;20115;-53
2024/03/16 07:24:49;;;;;;;0.60;0.40;;;;;;;;;;5069826;28;20040;-50
2024/03/16 07:27:14;;;;;;;1.05;0.50;;;;;;;;;;5070988;28;20048;-52
2024/03/16 07:29:40;;;;;;;1.20;0.50;;;;;;;;;;5071023;28;20032;-56
2024/03/16 07:32:06;;;;;;;1.80;0.80;;;;;;;;;;5070113;28;20034;-55
2024/03/16 07:34:33;;;;;;;2.08;0.50;;;;;;;;;;5070256;28;20131;-54
2024/03/16 07:36:59;;;;;;;0.93;0.50;;;;;;;;;;5070571;28;20036;-55
2024/03/16 07:39:24;;;;;;;0.80;0.45;;;;;;;;;;5052579;28;20029;-54
2024/03/16 07:41:49;;;;;;;4.15;0.50;;;;;;;;;;5070600;28;20066;-51
2024/03/16 07:44:15;;;;;;;0.63;0.50;;;;;;;;;;5070734;28;20139;-55
2024/03/16 07:46:40;;;;;;;2.03;0.70;;;;;;;;;;5070107;28;20387;-56
2024/03/16 07:49:05;;;;;;;0.90;0.50;;;;;;;;;;5070583;28;20062;-56
2024/03/16 07:51:31;;;;;;;1.08;0.50;;;;;;;;;;5070572;28;20028;-54
2024/03/16 07:53:57;;;;;;;2.60;0.50;;;;;;;;;;5070307;28;20381;-55
2024/03/16 07:56:23;;;;;;;1.92;0.52;;;;;;;;;;5069207;28;20046;-54
2024/03/16 07:58:49;;;;;;;1.00;0.50;;;;;;;;;;5069126;28;20052;-60
2024/03/16 08:01:15;;;;;;;0.50;0.40;;;;;;;;;;5069179;28;20029;-60
2024/03/16 08:03:42;;;;;;;1.92;0.50;;;;;;;;;;5068721;28;20400;-60
2024/03/16 08:06:07;;;;;;;1.00;0.50;;;;;;;;;;5069824;28;20093;-60
2024/03/16 08:08:35;;;;;;;2.53;0.57;;;;;;;;;;5070261;28;20548;-60
2024/03/16 08:11:01;;;;;;;0.90;0.50;;;;;;;;;;5062171;28;20045;-59
2024/03/16 08:13:26;;;;;;;2.72;0.60;;;;;;;;;;5069348;28;20036;-55
2024/03/16 08:15:52;;;;;;;1.42;0.60;;;;;;;;;;5067127;28;20032;-54
2024/03/16 08:18:18;;;;;;;2.08;0.68;;;;;;;;;;5068764;28;20040;-59
2024/03/16 08:20:43;;;;;;;3.25;0.70;;;;;;;;;;5070083;28;20056;-60
2024/03/16 08:23:08;;;;;;;1.90;0.70;;;;;;;;;;5069884;28;20033;-60
2024/03/16 08:25:34;;;;;;;1.00;0.60;;;;;;;;;;5070101;28;20089;-60
2024/03/16 08:27:59;;;;;;;3.25;0.60;;;;;;;;;;5068866;28;20499;-61
2024/03/16 08:30:27;;;;;;;8.50;0.90;;;;;;;;;;5070119;28;20025;-56
2024/03/16 08:32:53;;;;;;;1.17;0.60;;;;;;;;;;5069603;28;20087;-57
2024/03/16 08:35:19;;;;;;;1.58;0.75;;;;;;;;;;5068675;28;20032;-56
2024/03/16 08:37:45;;;;;;;1.23;0.50;;;;;;;;;;5071543;28;20614;-56
2024/03/16 08:40:13;;;;;;;2.85;0.70;;;;;;;;;;5071161;28;20047;-54
2024/03/16 08:42:40;;;;;;;3.85;0.90;;;;;;;;;;5068920;28;20024;-56
2024/03/16 08:45:07;;;;;;;8.52;0.95;;;;;;;;;;5060491;28;20028;-55
2024/03/16 08:47:33;;;;;;;6.78;0.70;;;;;;;;;;5068876;28;20098;-56
2024/03/16 08:49:58;;;;;;;4.03;1.35;;;;;;;;;;5051091;28;20028;-52
2024/03/16 08:52:25;;;;;;;3.22;0.82;;;;;;;;;;5069564;28;20030;-56
2024/03/16 08:54:55;;;;;;;5.05;0.77;;;;;;;;;;5069704;28;20381;-51
2024/03/16 08:57:21;;;;;;;1.90;0.80;;;;;;;;;;5068806;28;20024;-54
2024/03/16 08:59:46;;;;;;;2.40;0.80;;;;;;;;;;5069303;28;20028;-54
2024/03/16 09:02:12;;;;;;;2.25;0.70;;;;;;;;;;5070322;28;20379;-56
2024/03/16 09:04:37;;;;;;;2.80;0.70;;;;;;;;;;5069804;28;20542;-56
2024/03/16 09:07:03;;;;;;;5.88;0.80;;;;;;;;;;5068713;28;20483;-57
2024/03/16 09:09:28;;;;;;;3.05;0.65;;;;;;;;;;5069958;28;20036;-57
2024/03/16 09:11:53;;;;;;;1.83;0.70;;;;;;;;;;5070041;28;20479;-54
2024/03/16 09:14:19;;;;;;;4.10;0.80;;;;;;;;;;5070125;28;20456;-54
2024/03/16 09:16:44;;;;;;;5.93;0.80;;;;;;;;;;5069583;28;20563;-57
2024/03/16 09:19:09;;;;;;;4.13;0.82;;;;;;;;;;5069787;28;20055;-59
2024/03/16 09:21:35;;;;;;;3.95;0.90;;;;;;;;;;5069787;28;20032;-61
2024/03/16 09:24:00;;;;;;;5.80;1.00;;;;;;;;;;5069011;28;20040;-60
2024/03/16 09:26:26;;;;;;;6.53;0.98;;;;;;;;;;5070100;28;20024;-60
2024/03/16 09:28:51;;;;;;;2.42;0.80;;;;;;;;;;5065836;28;20119;-61
2024/03/16 09:31:17;;;;;;;1.88;0.75;;;;;;;;;;5068868;28;20037;-52
2024/03/16 09:33:42;;;;;;;2.65;0.77;;;;;;;;;;5069817;28;20119;-54
2024/03/16 09:36:08;;;;;;;6.43;0.70;;;;;;;;;;5069141;28;20032;-57
2024/03/16 09:38:34;;;;;;;2.10;0.88;;;;;;;;;;5068996;28;20072;-54
2024/03/16 09:40:59;;;;;;;5.45;0.80;;;;;;;;;;5069773;28;20428;-54
2024/03/16 09:43:25;;;;;;;12.63;0.90;;;;;;;;;;5069477;28;20142;-53
2024/03/16 09:45:54;;;;;;;3.00;1.00;;;;;;;;;;5068885;28;20445;-57
2024/03/16 09:48:21;;;;;;;4.25;0.95;;;;;;;;;;5052128;28;20033;-60
2024/03/16 09:50:52;;;;;;;8.10;1.00;;;;;;;;;;5069714;28;20093;-59
2024/03/16 09:53:31;;;;;;;4.78;1.00;;;;;;;;;;5068959;28;20033;-59
2024/03/16 09:55:57;;;;;;;4.15;0.98;;;;;;;;;;5069781;28;20052;-61
2024/03/16 09:58:23;;;;;;;3.33;1.17;;;;;;;;;;5069913;28;20060;-60
2024/03/16 10:00:53;;;;;;;3.42;1.33;;;;;;;;;;5069367;28;20036;-60
2024/03/16 10:03:19;;;;;;;4.28;0.98;;;;;;;;;;5052042;28;20028;-60
2024/03/16 10:05:45;;;;;;;3.05;1.00;;;;;;;;;;5069676;28;20109;-61
2024/03/16 10:08:17;;;;;;;2.28;0.80;;;;;;;;;;5069703;28;20456;-61
2024/03/16 10:10:42;;;;;;;3.53;0.95;;;;;;;;;;5069890;28;20052;-61
2024/03/16 10:13:08;;;;;;;3.92;1.00;;;;;;;;;;5069831;28;20172;-60
2024/03/16 10:15:41;;;;;;;3.15;0.80;;;;;;;;;;5068966;28;20612;-60
2024/03/16 10:18:11;;;;;;;2.97;1.00;;;;;;;;;;5061905;28;20033;-61
2024/03/16 10:20:36;;;;;;;2.42;1.00;;;;;;;;;;5073280;28;20108;-61
2024/03/16 10:23:02;;;;;;;4.10;1.17;;;;;;;;;;5073121;28;20445;-59
2024/03/16 10:25:27;;;;;;;5.30;0.90;;;;;;;;;;5073139;28;20364;-59
2024/03/16 10:27:54;;;;;;;1.27;0.68;;;;;;;;;;5073004;28;20124;-50
2024/03/16 10:30:20;;;;;;;1.70;0.80;;;;;;;;;;5073342;28;20033;-55
2024/03/16 10:32:49;;;;;;;2.70;0.82;;;;;;;;;;5072687;28;20093;-54
2024/03/16 10:35:15;;;;;;;3.58;1.00;;;;;;;;;;5073084;28;20032;-56
2024/03/16 10:37:42;;;;;;;2.25;0.90;;;;;;;;;;5073179;28;20044;-53
2024/03/16 10:40:16;;;;;;;2.38;0.98;;;;;;;;;;5072747;28;20357;-55
2024/03/16 10:42:43;;;;;;;3.90;0.95;;;;;;;;;;5072212;28;20052;-54
2024/03/16 10:45:14;;;;;;;3.17;0.88;;;;;;;;;;5072909;28;20024;-52
2024/03/16 10:47:50;;;;;;;3.00;1.00;;;;;;;;;;5072408;28;20047;-55
2024/03/16 10:50:19;;;;;;;2.75;1.20;;;;;;;;;;5071444;28;20501;-54
2024/03/16 10:52:45;;;;;;;2.25;1.00;;;;;;;;;;5072852;28;20051;-52
2024/03/16 10:55:15;;;;;;;2.05;0.82;;;;;;;;;;5072468;28;20063;-51
2024/03/16 10:57:41;;;;;;;3.35;0.90;;;;;;;;;;5054764;28;20120;-53
2024/03/16 11:00:21;;;;;;;2.45;0.93;;;;;;;;;;5072857;28;20111;-55
2024/03/16 11:02:59;;;;;;;1.67;0.90;;;;;;;;;;5071298;28;20024;-53
2024/03/16 11:05:35;;;;;;;1.83;0.80;;;;;;;;;;5072295;28;20041;-55
2024/03/16 11:08:00;;;;;;;2.00;1.00;;;;;;;;;;5072453;28;20028;-60
2024/03/16 11:10:53;;;;;;;2.10;0.73;;;;;;;;;;5053442;28;20239;-60
2024/03/16 11:13:28;;;;;;;7.20;0.98;;;;;;;;;;5050907;28;20032;-59
2024/03/16 11:15:54;;;;;;;2.22;0.75;;;;;;;;;;5072280;28;20059;-59
2024/03/16 11:18:19;;;;;;;2.13;1.00;;;;;;;;;;5072288;28;20032;-60
2024/03/16 11:20:50;;;;;;;1.55;0.63;;;;;;;;;;5072215;28;20475;-50
2024/03/16 11:23:29;;;;;;;2.33;0.70;;;;;;;;;;5071911;28;20511;-53
2024/03/16 11:25:56;;;;;;;3.30;0.75;;;;;;;;;;5072000;28;20037;-52
2024/03/16 11:28:22;;;;;;;2.08;0.90;;;;;;;;;;5071782;28;20495;-52
2024/03/16 11:30:50;;;;;;;1.40;0.80;;;;;;;;;;5071684;28;20032;-55
2024/03/16 11:33:22;;;;;;;3.00;0.80;;;;;;;;;;5071863;28;20514;-54
2024/03/16 11:35:49;;;;;;;1.55;0.77;;;;;;;;;;5071559;28;20426;-52
2024/03/16 11:38:15;;;;;;;1.65;0.73;;;;;;;;;;5071939;28;20071;-53
2024/03/16 11:40:43;;;;;;;1.67;0.80;;;;;;;;;;5071813;28;20606;-50
2024/03/16 11:43:12;;;;;;;1.08;0.60;;;;;;;;;;5071612;28;20040;-54
2024/03/16 11:45:39;;;;;;;1.40;0.80;;;;;;;;;;5071684;28;20060;-53
2024/03/16 11:48:05;;;;;;;1.75;0.68;;;;;;;;;;5071715;28;20032;-53
2024/03/16 11:50:39;;;;;;;2.88;0.82;;;;;;;;;;5071416;28;20464;-55
2024/03/16 11:53:09;;;;;;;1.73;0.80;;;;;;;;;;5071692;28;20040;-53
2024/03/16 11:55:35;;;;;;;1.83;0.70;;;;;;;;;;5071576;28;20097;-56
2024/03/16 11:58:03;;;;;;;1.95;0.82;;;;;;;;;;5070205;28;20044;-53
2024/03/16 12:00:29;;;;;;;2.13;0.70;;;;;;;;;;5051675;28;20029;-59
2024/03/16 12:02:57;;;;;;;1.85;0.82;;;;;;;;;;5071436;28;20037;-59
2024/03/16 12:05:23;;;;;;;1.45;0.77;;;;;;;;;;5068057;28;20037;-59
2024/03/16 12:07:48;;;;;;;1.20;0.60;;;;;;;;;;5071023;28;20036;-58
2024/03/16 12:10:14;;;;;;;1.60;0.90;;;;;;;;;;5052995;28;20032;-58
2024/03/16 12:12:42;;;;;;;1.42;0.65;;;;;;;;;;5070981;28;20044;-56
2024/03/16 12:15:17;;;;;;;1.60;0.70;;;;;;;;;;5071098;28;20040;-55
2024/03/16 12:17:43;;;;;;;1.60;0.70;;;;;;;;;;5058300;28;20577;-56
2024/03/16 12:20:10;;;;;;;1.52;0.50;;;;;;;;;;5069847;28;20055;-55
2024/03/16 12:22:47;;;;;;;1.73;0.75;;;;;;;;;;5070082;28;20437;-51
2024/03/16 12:25:13;;;;;;;3.13;0.82;;;;;;;;;;5053291;28;20738;-53
2024/03/16 12:27:41;;;;;;;0.80;0.52;;;;;;;;;;5069869;28;20112;-55
2024/03/16 12:30:08;;;;;;;1.30;0.70;;;;;;;;;;5070668;28;20153;-57
2024/03/16 12:32:34;;;;;;;1.20;0.60;;;;;;;;;;5071262;28;20541;-52
2024/03/16 12:34:59;;;;;;;1.02;0.70;;;;;;;;;;5070900;28;20044;-56
2024/03/16 12:37:24;;;;;;;1.08;0.57;;;;;;;;;;5070603;28;20071;-54
2024/03/16 12:39:50;;;;;;;0.95;0.55;;;;;;;;;;5070779;28;20093;-53
2024/03/16 12:42:15;;;;;;;1.10;0.63;;;;;;;;;;5069543;28;20031;-55
2024/03/16 12:44:43;;;;;;;1.00;0.55;;;;;;;;;;5070321;28;20040;-55
2024/03/16 12:47:09;;;;;;;1.23;0.68;;;;;;;;;;5070583;28;20404;-56
2024/03/16 12:49:34;;;;;;;1.40;0.65;;;;;;;;;;5070572;28;20036;-56
2024/03/16 12:52:00;;;;;;;1.25;0.68;;;;;;;;;;5070300;28;20036;-53
2024/03/16 12:54:25;;;;;;;1.33;0.73;;;;;;;;;;5070065;28;20044;-52
2024/03/16 12:56:51;;;;;;;1.25;0.60;;;;;;;;;;5070634;28;20028;-53
2024/03/16 12:59:20;;;;;;;2.00;0.45;;;;;;;;;;5070549;28;20043;-55
2024/03/16 13:01:46;;;;;;;1.15;0.60;;;;;;;;;;5069931;28;20041;-58
2024/03/16 13:04:11;;;;;;;1.75;0.70;;;;;;;;;;5066607;28;20164;-55
2024/03/16 13:06:36;;;;;;;1.80;0.65;;;;;;;;;;5070078;28;20044;-54
2024/03/16 13:09:10;;;;;;;2.08;0.80;;;;;;;;;;5070092;28;20032;-53
2024/03/16 13:11:36;;;;;;;1.05;0.60;;;;;;;;;;5070240;28;20036;-55
2024/03/16 13:14:01;;;;;;;1.98;0.75;;;;;;;;;;5070411;28;20052;-53
2024/03/16 13:16:26;;;;;;;1.23;0.70;;;;;;;;;;5070074;28;20170;-55
2024/03/16 13:18:54;;;;;;;0.95;0.57;;;;;;;;;;5070058;28;20119;-55
2024/03/16 13:21:19;;;;;;;1.55;0.70;;;;;;;;;;5070270;28;20639;-51
2024/03/16 13:23:45;;;;;;;1.20;0.60;;;;;;;;;;5069930;28;20035;-54
2024/03/16 13:26:14;;;;;;;1.58;0.60;;;;;;;;;;5069949;28;20029;-56
2024/03/16 13:28:40;;;;;;;1.45;0.63;;;;;;;;;;5058346;28;20048;-53
2024/03/16 13:31:09;;;;;;;1.33;0.60;;;;;;;;;;5069645;28;20048;-54
2024/03/16 13:33:34;;;;;;;1.25;0.63;;;;;;;;;;5051537;28;20044;-56
2024/03/16 13:36:00;;;;;;;1.33;0.60;;;;;;;;;;5070373;28;20044;-51
2024/03/16 13:38:25;;;;;;;1.25;0.57;;;;;;;;;;5069781;28;20067;-53
2024/03/16 13:40:50;;;;;;;3.38;0.70;;;;;;;;;;5069557;28;20036;-53
2024/03/16 13:43:16;;;;;;;1.27;0.50;;;;;;;;;;5070228;28;20052;-56
2024/03/16 13:45:46;;;;;;;3.67;0.60;;;;;;;;;;5069695;28;20082;-57
2024/03/16 13:48:12;;;;;;;1.65;0.70;;;;;;;;;;5069814;28;20082;-56
2024/03/16 13:50:39;;;;;;;0.65;0.45;;;;;;;;;;5069946;28;20066;-54
2024/03/16 13:53:05;;;;;;;1.00;0.47;;;;;;;;;;5071385;28;20032;-56
2024/03/16 13:55:30;;;;;;;1.25;0.70;;;;;;;;;;5073814;28;20031;-56
2024/03/16 13:57:56;;;;;;;1.02;0.63;;;;;;;;;;5073490;28;20143;-54
2024/03/16 14:00:22;;;;;;;0.82;0.50;;;;;;;;;;5073746;28;20037;-60
2024/03/16 14:02:49;;;;;;;1.33;0.70;;;;;;;;;;5073609;28;20036;-61
2024/03/16 14:05:14;;;;;;;2.13;0.80;;;;;;;;;;5073384;28;20043;-60
2024/03/16 14:07:40;;;;;;;0.98;0.60;;;;;;;;;;5073648;28;20037;-61
2024/03/16 14:10:09;;;;;;;1.17;0.60;;;;;;;;;;5073377;28;20142;-60
2024/03/16 14:12:35;;;;;;;1.30;0.60;;;;;;;;;;5073241;28;20048;-59
2024/03/16 14:15:03;;;;;;;2.30;0.60;;;;;;;;;;5072019;28;20058;-59
2024/03/16 14:17:28;;;;;;;2.55;0.80;;;;;;;;;;5073279;28;20162;-61
2024/03/16 14:19:54;;;;;;;1.02;0.60;;;;;;;;;;5071027;28;20135;-59
2024/03/16 14:22:22;;;;;;;1.83;0.52;;;;;;;;;;5073286;28;20605;-59
2024/03/16 14:24:50;;;;;;;2.55;0.55;;;;;;;;;;5073266;28;20446;-61
2024/03/16 14:27:16;;;;;;;1.15;0.50;;;;;;;;;;5072779;28;20113;-61
2024/03/16 14:29:42;;;;;;;1.08;0.50;;;;;;;;;;5073140;28;20071;-53
2024/03/16 14:32:07;;;;;;;1.45;0.70;;;;;;;;;;5073186;28;20051;-53
2024/03/16 14:34:33;;;;;;;1.38;0.50;;;;;;;;;;5071926;28;20051;-53
2024/03/16 14:36:58;;;;;;;1.35;0.70;;;;;;;;;;5072311;28;20039;-49
2024/03/16 14:39:27;;;;;;;1.55;0.70;;;;;;;;;;5073273;28;20112;-55